Weather at Staffanstorp Bjällerup Field

Public forecast

Using degrees Celsius for public forecast. Weather courtesy of forecast.io.

Closest aviation weather report (METAR) to Staffanstorp Bjällerup Field

Closest report is Malmö Sturup Airport, 7.3 nm (13.5 km) SSE.

2024/05/18 22:20 (retrieved 21 minutes ago)

ESMS 182220Z 07008KT CAVOK 14/04 Q1013

Closest aviation forecast (TAF) to Staffanstorp Bjällerup Field

Closest forecast is Malmö Sturup Airport, 7.3 nm (13.5 km) SSE.

2024/05/18 21:36 (retrieved 1 hour ago)

TAF ESMS 182009Z 1821/1921 07008KT CAVOK PROB40 1906/1910 SCT050CB TEMPO 1910/1915 SHRA SCT050CB